CBY29 EGXC-EGXC
Flight info
| Callsign | CBY29 |
|---|---|
| Flight time | N/A |
| Altitude | 26000 |
| Route | MAM TR1 LND STAY1/0100 LND TR1 MAM |
| Aircraft | EUFI/M-SG/C |
Departure
| Time | 2026-05-08 15:31 |
|---|---|
| Airport | RAF Coningsby (EGXC) |
Arrival
| Time | N/A |
|---|---|
| Airport | RAF Coningsby (EGXC) |
| Time | Latitude | Longitude | Altitude | Speed | Heading |
|---|---|---|---|---|---|
| 2026-05-08 15:25 | 53.09369 | -0.17916 | 26 ft | 0 kts | 249° |
| 2026-05-08 15:27 | 53.09365 | -0.17933 | 27 ft | 5 kts | 252° |
| 2026-05-08 15:27 | 53.09372 | -0.18031 | 27 ft | 14 kts | 290° |
| 2026-05-08 15:27 | 53.09419 | -0.18239 | 27 ft | 5 kts | 249° |
| 2026-05-08 15:27 | 53.09313 | -0.18325 | 27 ft | 25 kts | 203° |
| 2026-05-08 15:28 | 53.09161 | -0.18435 | 26 ft | 15 kts | 208° |
| 2026-05-08 15:28 | 53.09067 | -0.18508 | 27 ft | 14 kts | 204° |
| 2026-05-08 15:28 | 53.09053 | -0.18518 | 30 ft | 0 kts | 202° |
| 2026-05-08 15:29 | 53.09051 | -0.18520 | 29 ft | 3 kts | 202° |
| 2026-05-08 15:30 | 53.08941 | -0.18519 | 25 ft | 10 kts | 95° |
| 2026-05-08 15:30 | 53.08949 | -0.18483 | 24 ft | 0 kts | 71° |
| 2026-05-08 15:31 | 53.08987 | -0.18279 | 24 ft | 84 kts | 71° |
| 2026-05-08 15:31 | 53.09344 | -0.16593 | 451 ft | 176 kts | 68° |
| 2026-05-08 15:31 | 53.09705 | -0.14635 | 1744 ft | 176 kts | 98° |
| 2026-05-08 15:31 | 53.09412 | -0.12501 | 2968 ft | 205 kts | 102° |
| 2026-05-08 15:32 | 53.08829 | -0.09766 | 4042 ft | 316 kts | 124° |
| 2026-05-08 15:32 | 53.07090 | -0.06606 | 5217 ft | 382 kts | 139° |
| 2026-05-08 15:32 | 53.05089 | -0.03819 | 9409 ft | 382 kts | 142° |
| 2026-05-08 15:32 | 53.03290 | -0.01310 | 17751 ft | 269 kts | 141° |
| 2026-05-08 15:33 | 53.02237 | 0.00347 | 27958 ft | 203 kts | 141° |
| 2026-05-08 15:33 | 53.01052 | 0.02002 | 30850 ft | 222 kts | 145° |
| 2026-05-08 15:33 | 52.99702 | 0.03780 | 28164 ft | 279 kts | 146° |
| 2026-05-08 15:33 | 52.98188 | 0.05870 | 26878 ft | 279 kts | 140° |
| 2026-05-08 15:34 | 52.96849 | 0.08056 | 26343 ft | 260 kts | 138° |
| 2026-05-08 15:34 | 52.95560 | 0.10271 | 26154 ft | 272 kts | 137° |
| 2026-05-08 15:34 | 52.94186 | 0.12454 | 26083 ft | 274 kts | 143° |
| 2026-05-08 15:34 | 52.92726 | 0.14521 | 26048 ft | 278 kts | 142° |
| 2026-05-08 15:35 | 52.91495 | 0.16342 | 26032 ft | 284 kts | 140° |
| 2026-05-08 15:35 | 52.90026 | 0.18597 | 26035 ft | 293 kts | 140° |
| 2026-05-08 15:35 | 52.88449 | 0.20947 | 26047 ft | 321 kts | 141° |
| 2026-05-08 15:35 | 52.86635 | 0.23607 | 26080 ft | 394 kts | 140° |
| 2026-05-08 15:36 | 52.84199 | 0.27252 | 26200 ft | 548 kts | 139° |
| 2026-05-08 15:36 | 52.82202 | 0.30249 | 26252 ft | 589 kts | 139° |
| 2026-05-08 15:36 | 52.78161 | 0.36226 | 26268 ft | 587 kts | 139° |
| 2026-05-08 15:36 | 52.75110 | 0.40750 | 26225 ft | 585 kts | 139° |
| 2026-05-08 15:37 | 52.72083 | 0.45221 | 26190 ft | 583 kts | 139° |
| 2026-05-08 15:37 | 52.69060 | 0.49675 | 26160 ft | 583 kts | 139° |
| 2026-05-08 15:37 | 52.66020 | 0.54118 | 26137 ft | 583 kts | 142° |
| 2026-05-08 15:37 | 52.62625 | 0.57575 | 26131 ft | 579 kts | 158° |
| 2026-05-08 15:38 | 52.58765 | 0.59334 | 26129 ft | 575 kts | 175° |
| 2026-05-08 15:38 | 52.54802 | 0.59221 | 26128 ft | 570 kts | 192° |
| 2026-05-08 15:38 | 52.51050 | 0.57267 | 26133 ft | 565 kts | 208° |
| 2026-05-08 15:38 | 52.47816 | 0.53629 | 26134 ft | 560 kts | 225° |
| 2026-05-08 15:39 | 52.45403 | 0.48652 | 26132 ft | 556 kts | 242° |
| 2026-05-08 15:39 | 52.44011 | 0.42789 | 26123 ft | 552 kts | 258° |
| 2026-05-08 15:39 | 52.43118 | 0.36743 | 26109 ft | 553 kts | 251° |
| 2026-05-08 15:39 | 52.41431 | 0.31078 | 26101 ft | 555 kts | 241° |
| 2026-05-08 15:40 | 52.39422 | 0.25656 | 26095 ft | 555 kts | 239° |
| 2026-05-08 15:40 | 52.37332 | 0.20337 | 26089 ft | 555 kts | 238° |
| 2026-05-08 15:40 | 52.35214 | 0.15061 | 26081 ft | 555 kts | 238° |
| 2026-05-08 15:40 | 52.33118 | 0.09879 | 26078 ft | 555 kts | 238° |
| 2026-05-08 15:41 | 52.31162 | 0.04512 | 26076 ft | 553 kts | 244° |
| 2026-05-08 15:41 | 52.29429 | -0.01129 | 26074 ft | 553 kts | 243° |
| 2026-05-08 15:41 | 52.27547 | -0.06620 | 26074 ft | 554 kts | 242° |
| 2026-05-08 15:41 | 52.25933 | -0.11487 | 26074 ft | 553 kts | 243° |
| 2026-05-08 15:42 | 52.24138 | -0.16934 | 26070 ft | 553 kts | 242° |
| 2026-05-08 15:42 | 52.22270 | -0.22450 | 26070 ft | 553 kts | 243° |
| 2026-05-08 15:42 | 52.20437 | -0.27960 | 26076 ft | 553 kts | 243° |
| 2026-05-08 15:42 | 52.18591 | -0.33449 | 26070 ft | 552 kts | 242° |
| 2026-05-08 15:43 | 52.16737 | -0.38946 | 26068 ft | 552 kts | 242° |
| 2026-05-08 15:43 | 52.14886 | -0.44450 | 26068 ft | 552 kts | 242° |
| 2026-05-08 15:43 | 52.13038 | -0.49908 | 26072 ft | 568 kts | 242° |
| 2026-05-08 15:43 | 52.11126 | -0.55550 | 26072 ft | 563 kts | 242° |
| 2026-05-08 15:44 | 52.09240 | -0.61106 | 26068 ft | 564 kts | 242° |
| 2026-05-08 15:44 | 52.07318 | -0.66752 | 26071 ft | 565 kts | 242° |
| 2026-05-08 15:44 | 52.05448 | -0.72234 | 26072 ft | 562 kts | 242° |
| 2026-05-08 15:44 | 52.03540 | -0.77817 | 26069 ft | 564 kts | 242° |
| 2026-05-08 15:45 | 52.01623 | -0.83410 | 26069 ft | 570 kts | 242° |
| 2026-05-08 15:45 | 51.99691 | -0.89035 | 26069 ft | 571 kts | 242° |
| 2026-05-08 15:45 | 51.97764 | -0.94634 | 26070 ft | 567 kts | 242° |
| 2026-05-08 15:45 | 51.96477 | -0.98366 | 26071 ft | 569 kts | 242° |
| 2026-05-08 15:46 | 51.94125 | -1.05174 | 26069 ft | 568 kts | 242° |
| 2026-05-08 15:46 | 51.92812 | -1.08964 | 26070 ft | 566 kts | 242° |
| 2026-05-08 15:46 | 51.90909 | -1.14449 | 26068 ft | 568 kts | 242° |
| 2026-05-08 15:46 | 51.88973 | -1.20018 | 26067 ft | 569 kts | 241° |
| 2026-05-08 15:47 | 51.87030 | -1.25591 | 26067 ft | 566 kts | 241° |
| 2026-05-08 15:47 | 51.85082 | -1.31171 | 26068 ft | 568 kts | 241° |
| 2026-05-08 15:47 | 51.83128 | -1.36753 | 26069 ft | 568 kts | 241° |
| 2026-05-08 15:47 | 51.81180 | -1.42305 | 26067 ft | 566 kts | 241° |
| 2026-05-08 15:48 | 51.77279 | -1.53389 | 26041 ft | 567 kts | 241° |
| 2026-05-08 15:48 | 51.75271 | -1.58868 | 26038 ft | 566 kts | 236° |
| 2026-05-08 15:48 | 51.72786 | -1.63697 | 26046 ft | 569 kts | 225° |
| 2026-05-08 15:49 | 51.69746 | -1.67931 | 26051 ft | 571 kts | 220° |
| 2026-05-08 15:49 | 51.66657 | -1.71848 | 26050 ft | 570 kts | 221° |
| 2026-05-08 15:49 | 51.63717 | -1.76120 | 26051 ft | 568 kts | 224° |
| 2026-05-08 15:49 | 51.60741 | -1.80341 | 26050 ft | 570 kts | 221° |
| 2026-05-08 15:50 | 51.57744 | -1.84517 | 26052 ft | 568 kts | 223° |
| 2026-05-08 15:50 | 51.54788 | -1.88737 | 26056 ft | 568 kts | 222° |
| 2026-05-08 15:50 | 51.51797 | -1.92905 | 26060 ft | 570 kts | 222° |
| 2026-05-08 15:50 | 51.48816 | -1.97103 | 26056 ft | 567 kts | 223° |
| 2026-05-08 15:51 | 51.45873 | -2.01228 | 26055 ft | 568 kts | 222° |
| 2026-05-08 15:51 | 51.42891 | -2.05389 | 26050 ft | 568 kts | 222° |
| 2026-05-08 15:51 | 51.39922 | -2.09541 | 26043 ft | 566 kts | 222° |
| 2026-05-08 15:51 | 51.36932 | -2.13704 | 26046 ft | 567 kts | 222° |
| 2026-05-08 15:52 | 51.33947 | -2.17855 | 26037 ft | 567 kts | 222° |
| 2026-05-08 15:52 | 51.30975 | -2.21985 | 26039 ft | 566 kts | 222° |
| 2026-05-08 15:52 | 51.27983 | -2.26128 | 26041 ft | 566 kts | 222° |
| 2026-05-08 15:52 | 51.25046 | -2.30193 | 26034 ft | 568 kts | 222° |
| 2026-05-08 15:53 | 51.22060 | -2.34317 | 26037 ft | 566 kts | 222° |
| 2026-05-08 15:53 | 51.19082 | -2.38421 | 26033 ft | 566 kts | 222° |
| 2026-05-08 15:53 | 51.16088 | -2.42542 | 26040 ft | 568 kts | 222° |
| 2026-05-08 15:53 | 51.13100 | -2.46646 | 26038 ft | 566 kts | 221° |
| 2026-05-08 15:54 | 51.10116 | -2.50739 | 26046 ft | 566 kts | 221° |
| 2026-05-08 15:54 | 51.07116 | -2.54844 | 26050 ft | 567 kts | 221° |
| 2026-05-08 15:54 | 51.04126 | -2.58931 | 26047 ft | 565 kts | 221° |
| 2026-05-08 15:54 | 51.01417 | -2.63424 | 26054 ft | 564 kts | 234° |
| 2026-05-08 15:55 | 50.99269 | -2.68641 | 26055 ft | 565 kts | 239° |
| 2026-05-08 15:55 | 50.96109 | -2.79965 | 26046 ft | 564 kts | 249° |
| 2026-05-08 15:55 | 50.94564 | -2.85691 | 26046 ft | 565 kts | 245° |
| 2026-05-08 15:56 | 50.92958 | -2.91374 | 26048 ft | 564 kts | 247° |
| 2026-05-08 15:56 | 50.91422 | -2.97113 | 26042 ft | 564 kts | 246° |
| 2026-05-08 15:56 | 50.89823 | -3.02796 | 26036 ft | 566 kts | 246° |
| 2026-05-08 15:56 | 50.88273 | -3.08444 | 26038 ft | 564 kts | 246° |
| 2026-05-08 15:57 | 50.86703 | -3.14109 | 26040 ft | 565 kts | 245° |
| 2026-05-08 15:57 | 50.85107 | -3.19823 | 26039 ft | 566 kts | 246° |
| 2026-05-08 15:57 | 50.83524 | -3.25525 | 26038 ft | 564 kts | 246° |
| 2026-05-08 15:57 | 50.81936 | -3.31198 | 26045 ft | 565 kts | 245° |
| 2026-05-08 15:58 | 50.80340 | -3.36896 | 26046 ft | 566 kts | 245° |
| 2026-05-08 15:58 | 50.78749 | -3.42569 | 26043 ft | 564 kts | 245° |
| 2026-05-08 15:58 | 50.77158 | -3.48219 | 26044 ft | 565 kts | 245° |
| 2026-05-08 15:58 | 50.75550 | -3.53920 | 26045 ft | 566 kts | 245° |
| 2026-05-08 15:59 | 50.73968 | -3.59514 | 26046 ft | 564 kts | 245° |
| 2026-05-08 15:59 | 50.72366 | -3.65164 | 26041 ft | 565 kts | 245° |
| 2026-05-08 15:59 | 50.70761 | -3.70816 | 26036 ft | 566 kts | 245° |
| 2026-05-08 15:59 | 50.69152 | -3.76464 | 26041 ft | 565 kts | 245° |
| 2026-05-08 16:00 | 50.67540 | -3.82109 | 26036 ft | 565 kts | 245° |
| 2026-05-08 16:00 | 50.65921 | -3.87769 | 26031 ft | 566 kts | 245° |
| 2026-05-08 16:00 | 50.64298 | -3.93425 | 26028 ft | 566 kts | 245° |
| 2026-05-08 16:00 | 50.62676 | -3.99068 | 26026 ft | 564 kts | 245° |
| 2026-05-08 16:01 | 50.61196 | -4.04787 | 26032 ft | 567 kts | 253° |
| 2026-05-08 16:01 | 50.60601 | -4.10959 | 26048 ft | 570 kts | 265° |
| 2026-05-08 16:01 | 50.60469 | -4.17193 | 26039 ft | 570 kts | 268° |
| 2026-05-08 16:01 | 50.60543 | -4.23443 | 26036 ft | 570 kts | 270° |
| 2026-05-08 16:02 | 50.60424 | -4.29584 | 26038 ft | 569 kts | 264° |
| 2026-05-08 16:02 | 50.60229 | -4.35881 | 26033 ft | 570 kts | 266° |
| 2026-05-08 16:02 | 50.60221 | -4.42037 | 26040 ft | 570 kts | 270° |
| 2026-05-08 16:02 | 50.60405 | -4.48263 | 26034 ft | 570 kts | 271° |
| 2026-05-08 16:03 | 50.60889 | -4.54512 | 25792 ft | 574 kts | 279° |
| 2026-05-08 16:03 | 50.61865 | -4.60597 | 25618 ft | 570 kts | 283° |
| 2026-05-08 16:03 | 50.62910 | -4.66653 | 25464 ft | 573 kts | 283° |
| 2026-05-08 16:03 | 50.63961 | -4.72710 | 25304 ft | 569 kts | 283° |
| 2026-05-08 16:04 | 50.64992 | -4.78643 | 25120 ft | 570 kts | 283° |
| 2026-05-08 16:04 | 50.66037 | -4.84666 | 24938 ft | 569 kts | 283° |
| 2026-05-08 16:04 | 50.67081 | -4.90675 | 24752 ft | 568 kts | 283° |
| 2026-05-08 16:04 | 50.68597 | -4.96453 | 24265 ft | 572 kts | 293° |
| 2026-05-08 16:05 | 50.70174 | -5.02162 | 23706 ft | 563 kts | 289° |
| 2026-05-08 16:05 | 50.71487 | -5.07950 | 23077 ft | 558 kts | 286° |
| 2026-05-08 16:05 | 50.72706 | -5.13731 | 22572 ft | 554 kts | 286° |
| 2026-05-08 16:05 | 50.74302 | -5.19155 | 21996 ft | 558 kts | 321° |
| 2026-05-08 16:06 | 50.77828 | -5.22078 | 21024 ft | 582 kts | 334° |
| 2026-05-08 16:06 | 50.79867 | -5.23955 | 13956 ft | 379 kts | 221° |
| 2026-05-08 16:06 | 50.78089 | -5.27825 | 11382 ft | 257 kts | 244° |
| 2026-05-08 16:06 | 50.77806 | -5.26635 | 6888 ft | 241 kts | 82° |
| 2026-05-08 16:07 | 50.78035 | -5.23369 | 6198 ft | 375 kts | 87° |
| 2026-05-08 16:07 | 50.78073 | -5.18381 | 6370 ft | 517 kts | 94° |
| 2026-05-08 16:07 | 50.78425 | -5.12196 | 9488 ft | 604 kts | 78° |
| 2026-05-08 16:07 | 50.79826 | -5.06174 | 13552 ft | 532 kts | 66° |
| 2026-05-08 16:08 | 50.81343 | -5.01233 | 17883 ft | 483 kts | 65° |
| 2026-05-08 16:08 | 50.82408 | -4.96534 | 21801 ft | 423 kts | 103° |
| 2026-05-08 16:08 | 50.81080 | -4.93450 | 22444 ft | 322 kts | 142° |
| 2026-05-08 16:08 | 50.79162 | -4.92090 | 22635 ft | 296 kts | 185° |
| 2026-05-08 16:09 | 50.77302 | -4.93177 | 22267 ft | 274 kts | 223° |
| 2026-05-08 16:09 | 50.76367 | -4.94653 | 23046 ft | 305 kts | 226° |
| 2026-05-08 16:09 | 50.74056 | -4.99032 | 25409 ft | 510 kts | 237° |
| 2026-05-08 16:09 | 50.72958 | -5.04612 | 29271 ft | 527 kts | 268° |
| 2026-05-08 16:10 | 50.73830 | -5.10124 | 33023 ft | 526 kts | 298° |
| 2026-05-08 16:10 | 50.76543 | -5.14061 | 35267 ft | 550 kts | 330° |
| 2026-05-08 16:10 | 50.80078 | -5.16501 | 36719 ft | 556 kts | 332° |
| 2026-05-08 16:10 | 50.83497 | -5.19315 | 38178 ft | 553 kts | 326° |
| 2026-05-08 16:11 | 50.86824 | -5.22535 | 38466 ft | 575 kts | 326° |
| 2026-05-08 16:11 | 50.90312 | -5.25898 | 38198 ft | 586 kts | 326° |
| 2026-05-08 16:11 | 50.93512 | -5.28899 | 38033 ft | 478 kts | 322° |
| 2026-05-08 16:11 | 50.96034 | -5.31052 | 38021 ft | 375 kts | 328° |
| 2026-05-08 16:12 | 50.98188 | -5.32717 | 37855 ft | 319 kts | 330° |
| 2026-05-08 16:12 | 51.00174 | -5.34067 | 37656 ft | 302 kts | 330° |
| 2026-05-08 16:12 | 51.02057 | -5.35416 | 37213 ft | 298 kts | 327° |
| 2026-05-08 16:12 | 51.03912 | -5.36912 | 36445 ft | 300 kts | 326° |
| 2026-05-08 16:13 | 51.05775 | -5.38431 | 35844 ft | 303 kts | 328° |
| 2026-05-08 16:13 | 51.07425 | -5.39701 | 35424 ft | 302 kts | 326° |
| 2026-05-08 16:13 | 51.08105 | -5.40251 | 35395 ft | 292 kts | 326° |
| 2026-05-08 16:13 | 51.09725 | -5.41504 | 36420 ft | 233 kts | 327° |
| 2026-05-08 16:14 | 51.10447 | -5.42034 | 36749 ft | 223 kts | 327° |
| 2026-05-08 16:14 | 51.12072 | -5.43284 | 34756 ft | 304 kts | 326° |
| 2026-05-08 16:14 | 51.12869 | -5.43936 | 33773 ft | 338 kts | 326° |
| 2026-05-08 16:15 | 51.14740 | -5.45517 | 32812 ft | 389 kts | 327° |
| 2026-05-08 16:15 | 51.17403 | -5.47845 | 33243 ft | 493 kts | 327° |
| 2026-05-08 16:15 | 51.20641 | -5.50836 | 35440 ft | 542 kts | 324° |
| 2026-05-08 16:15 | 51.23813 | -5.54087 | 37099 ft | 544 kts | 323° |
| 2026-05-08 16:16 | 51.26944 | -5.57401 | 37688 ft | 536 kts | 323° |
| 2026-05-08 16:16 | 51.29965 | -5.60478 | 38069 ft | 487 kts | 326° |
| 2026-05-08 16:16 | 51.32575 | -5.62810 | 38085 ft | 424 kts | 327° |
| 2026-05-08 16:16 | 51.35024 | -5.64916 | 38019 ft | 389 kts | 328° |
| 2026-05-08 16:17 | 51.37446 | -5.66232 | 37824 ft | 361 kts | 349° |
| 2026-05-08 16:17 | 51.39125 | -5.66455 | 37686 ft | 372 kts | 352° |
| 2026-05-08 16:17 | 51.42699 | -5.66439 | 37280 ft | 369 kts | 30° |
| 2026-05-08 16:17 | 51.43899 | -5.63466 | 34857 ft | 321 kts | 107° |
| 2026-05-08 16:18 | 51.42909 | -5.60507 | 32527 ft | 310 kts | 138° |
| 2026-05-08 16:18 | 51.41250 | -5.57935 | 30538 ft | 361 kts | 144° |
| 2026-05-08 16:18 | 51.39039 | -5.55046 | 28130 ft | 468 kts | 144° |
| 2026-05-08 16:18 | 51.36105 | -5.51329 | 25403 ft | 592 kts | 144° |
| 2026-05-08 16:19 | 51.32873 | -5.47350 | 23726 ft | 580 kts | 144° |
| 2026-05-08 16:19 | 51.29728 | -5.43432 | 22483 ft | 575 kts | 144° |
| 2026-05-08 16:19 | 51.26544 | -5.39419 | 21418 ft | 587 kts | 143° |
| 2026-05-08 16:19 | 51.23395 | -5.35375 | 20419 ft | 571 kts | 143° |
| 2026-05-08 16:20 | 51.20328 | -5.31403 | 19415 ft | 566 kts | 142° |
| 2026-05-08 16:20 | 51.17342 | -5.27476 | 18764 ft | 560 kts | 142° |
| 2026-05-08 16:20 | 51.14348 | -5.23523 | 18406 ft | 555 kts | 141° |
| 2026-05-08 16:20 | 51.11399 | -5.19561 | 18112 ft | 551 kts | 141° |
| 2026-05-08 16:21 | 51.08500 | -5.15591 | 18019 ft | 546 kts | 140° |
| 2026-05-08 16:21 | 51.05662 | -5.11626 | 17859 ft | 542 kts | 140° |
| 2026-05-08 16:21 | 51.02812 | -5.07854 | 17816 ft | 539 kts | 156° |
| 2026-05-08 16:21 | 50.99547 | -5.05983 | 11547 ft | 500 kts | 163° |
| 2026-05-08 16:22 | 50.95970 | -5.04433 | 7027 ft | 512 kts | 167° |
| 2026-05-08 16:22 | 50.92604 | -5.03192 | 7005 ft | 504 kts | 167° |
| 2026-05-08 16:22 | 50.89163 | -5.01945 | 6869 ft | 508 kts | 168° |
| 2026-05-08 16:22 | 50.85739 | -5.00820 | 7316 ft | 499 kts | 169° |
| 2026-05-08 16:23 | 50.82314 | -4.99895 | 8197 ft | 510 kts | 172° |
| 2026-05-08 16:23 | 50.78585 | -4.99097 | 10728 ft | 566 kts | 173° |
| 2026-05-08 16:23 | 50.74650 | -4.98384 | 13744 ft | 571 kts | 174° |
| 2026-05-08 16:23 | 50.70691 | -4.97674 | 16603 ft | 568 kts | 174° |
| 2026-05-08 16:24 | 50.67725 | -4.99659 | 17365 ft | 561 kts | 278° |
| 2026-05-08 16:24 | 50.69311 | -5.05615 | 17581 ft | 588 kts | 295° |
| 2026-05-08 16:24 | 50.71083 | -5.11391 | 18462 ft | 592 kts | 292° |
| 2026-05-08 16:24 | 50.72449 | -5.17480 | 19178 ft | 590 kts | 286° |
| 2026-05-08 16:25 | 50.73176 | -5.23902 | 19661 ft | 596 kts | 271° |
| 2026-05-08 16:25 | 50.72782 | -5.30316 | 19864 ft | 585 kts | 256° |
| 2026-05-08 16:25 | 50.71680 | -5.36546 | 19961 ft | 590 kts | 251° |
| 2026-05-08 16:25 | 50.70372 | -5.42662 | 20003 ft | 586 kts | 248° |
| 2026-05-08 16:26 | 50.68686 | -5.48410 | 20026 ft | 587 kts | 242° |
| 2026-05-08 16:26 | 50.66745 | -5.54071 | 20032 ft | 586 kts | 240° |
| 2026-05-08 16:26 | 50.64724 | -5.59660 | 20031 ft | 586 kts | 239° |
| 2026-05-08 16:26 | 50.62665 | -5.65226 | 20032 ft | 586 kts | 239° |
| 2026-05-08 16:27 | 50.60596 | -5.70761 | 20033 ft | 585 kts | 238° |
| 2026-05-08 16:27 | 50.58521 | -5.76285 | 20034 ft | 586 kts | 238° |
| 2026-05-08 16:27 | 50.56468 | -5.81739 | 20035 ft | 584 kts | 238° |
| 2026-05-08 16:27 | 50.54395 | -5.87239 | 20032 ft | 586 kts | 238° |
| 2026-05-08 16:28 | 50.52323 | -5.92734 | 20032 ft | 584 kts | 238° |
| 2026-05-08 16:28 | 50.50241 | -5.98249 | 20027 ft | 585 kts | 238° |
| 2026-05-08 16:28 | 50.48163 | -6.03757 | 20032 ft | 584 kts | 238° |
| 2026-05-08 16:28 | 50.46089 | -6.09249 | 20032 ft | 585 kts | 238° |
| 2026-05-08 16:29 | 50.44034 | -6.14686 | 20026 ft | 584 kts | 238° |
| 2026-05-08 16:29 | 50.41968 | -6.20153 | 20028 ft | 583 kts | 238° |
| 2026-05-08 16:29 | 50.39888 | -6.25657 | 20034 ft | 584 kts | 238° |
| 2026-05-08 16:29 | 50.37820 | -6.31123 | 20025 ft | 583 kts | 238° |
| 2026-05-08 16:30 | 50.35748 | -6.36600 | 20025 ft | 585 kts | 238° |
| 2026-05-08 16:30 | 50.33676 | -6.42074 | 20022 ft | 583 kts | 238° |
| 2026-05-08 16:30 | 50.31608 | -6.47540 | 20023 ft | 585 kts | 238° |
| 2026-05-08 16:30 | 50.29563 | -6.52943 | 20378 ft | 579 kts | 238° |
| 2026-05-08 16:31 | 50.27486 | -6.58434 | 21143 ft | 591 kts | 238° |
| 2026-05-08 16:31 | 50.25394 | -6.63973 | 21934 ft | 598 kts | 238° |
| 2026-05-08 16:31 | 50.23285 | -6.69568 | 22743 ft | 591 kts | 238° |